sensor_id;sensor_type;location;lat;lon;timestamp;P1;durP1;ratioP1;P2;durP2;ratioP2
19167;SDS011;9716;53.114;18.040;2022-09-29T00:01:30;7.75;;;4.18;;
19167;SDS011;9716;53.114;18.040;2022-09-29T00:03:59;5.40;;;4.18;;
19167;SDS011;9716;53.114;18.040;2022-09-29T00:06:30;9.73;;;4.25;;
19167;SDS011;9716;53.114;18.040;2022-09-29T00:08:59;7.35;;;3.95;;
19167;SDS011;9716;53.114;18.040;2022-09-29T00:11:27;7.47;;;4.10;;
19167;SDS011;9716;53.114;18.040;2022-09-29T00:13:56;9.00;;;4.53;;
19167;SDS011;9716;53.114;18.040;2022-09-29T00:16:24;7.72;;;4.57;;
19167;SDS011;9716;53.114;18.040;2022-09-29T00:18:54;5.75;;;3.90;;
19167;SDS011;9716;53.114;18.040;2022-09-29T00:21:22;6.28;;;3.72;;
19167;SDS011;9716;53.114;18.040;2022-09-29T00:23:52;5.47;;;3.78;;
19167;SDS011;9716;53.114;18.040;2022-09-29T00:26:22;6.03;;;4.25;;
19167;SDS011;9716;53.114;18.040;2022-09-29T00:28:51;7.10;;;4.43;;
19167;SDS011;9716;53.114;18.040;2022-09-29T00:31:22;9.32;;;4.32;;
19167;SDS011;9716;53.114;18.040;2022-09-29T00:33:52;8.25;;;4.20;;
19167;SDS011;9716;53.114;18.040;2022-09-29T00:36:21;8.45;;;4.60;;
19167;SDS011;9716;53.114;18.040;2022-09-29T00:38:50;8.27;;;4.38;;
19167;SDS011;9716;53.114;18.040;2022-09-29T00:41:22;6.63;;;4.53;;
19167;SDS011;9716;53.114;18.040;2022-09-29T00:43:53;7.35;;;4.43;;
19167;SDS011;9716;53.114;18.040;2022-09-29T00:46:25;7.25;;;4.32;;
19167;SDS011;9716;53.114;18.040;2022-09-29T00:49:00;5.78;;;3.63;;
19167;SDS011;9716;53.114;18.040;2022-09-29T00:51:33;7.28;;;3.97;;
19167;SDS011;9716;53.114;18.040;2022-09-29T00:54:05;8.45;;;4.88;;
19167;SDS011;9716;53.114;18.040;2022-09-29T00:56:34;5.68;;;4.13;;
19167;SDS011;9716;53.114;18.040;2022-09-29T00:59:06;7.45;;;4.50;;
19167;SDS011;9716;53.114;18.040;2022-09-29T01:01:36;9.45;;;4.97;;
19167;SDS011;9716;53.114;18.040;2022-09-29T01:04:07;9.07;;;4.13;;
19167;SDS011;9716;53.114;18.040;2022-09-29T01:06:38;10.30;;;4.88;;
19167;SDS011;9716;53.114;18.040;2022-09-29T01:09:13;7.25;;;4.05;;
19167;SDS011;9716;53.114;18.040;2022-09-29T01:11:44;5.78;;;4.05;;
19167;SDS011;9716;53.114;18.040;2022-09-29T01:14:13;7.20;;;4.85;;
19167;SDS011;9716;53.114;18.040;2022-09-29T01:16:42;6.53;;;3.80;;
19167;SDS011;9716;53.114;18.040;2022-09-29T01:19:13;7.18;;;4.28;;
19167;SDS011;9716;53.114;18.040;2022-09-29T01:21:49;5.50;;;3.85;;
19167;SDS011;9716;53.114;18.040;2022-09-29T01:24:43;6.10;;;4.07;;
19167;SDS011;9716;53.114;18.040;2022-09-29T01:27:33;5.38;;;3.75;;
19167;SDS011;9716;53.114;18.040;2022-09-29T01:30:20;6.78;;;4.43;;
19167;SDS011;9716;53.114;18.040;2022-09-29T01:32:58;6.50;;;4.35;;
19167;SDS011;9716;53.114;18.040;2022-09-29T01:35:44;6.40;;;3.83;;
19167;SDS011;9716;53.114;18.040;2022-09-29T01:38:23;8.02;;;4.15;;
19167;SDS011;9716;53.114;18.040;2022-09-29T01:41:02;6.55;;;4.20;;
19167;SDS011;9716;53.114;18.040;2022-09-29T01:43:38;6.75;;;4.35;;
19167;SDS011;9716;53.114;18.040;2022-09-29T01:46:14;7.97;;;4.47;;
19167;SDS011;9716;53.114;18.040;2022-09-29T01:48:50;8.13;;;4.20;;
19167;SDS011;9716;53.114;18.040;2022-09-29T01:51:23;7.32;;;4.45;;
19167;SDS011;9716;53.114;18.040;2022-09-29T01:53:58;7.97;;;4.47;;
19167;SDS011;9716;53.114;18.040;2022-09-29T01:56:32;7.03;;;4.70;;
19167;SDS011;9716;53.114;18.040;2022-09-29T01:59:05;5.78;;;3.80;;
19167;SDS011;9716;53.114;18.040;2022-09-29T02:01:39;6.70;;;4.57;;
19167;SDS011;9716;53.114;18.040;2022-09-29T02:04:14;8.65;;;4.65;;
19167;SDS011;9716;53.114;18.040;2022-09-29T02:06:47;5.78;;;4.18;;
19167;SDS011;9716;53.114;18.040;2022-09-29T02:09:21;6.55;;;4.60;;
19167;SDS011;9716;53.114;18.040;2022-09-29T02:11:53;9.40;;;4.97;;
19167;SDS011;9716;53.114;18.040;2022-09-29T02:14:25;8.57;;;4.75;;
19167;SDS011;9716;53.114;18.040;2022-09-29T02:16:59;10.13;;;4.88;;
19167;SDS011;9716;53.114;18.040;2022-09-29T02:19:35;11.20;;;5.60;;
19167;SDS011;9716;53.114;18.040;2022-09-29T02:22:07;7.65;;;4.90;;
19167;SDS011;9716;53.114;18.040;2022-09-29T02:24:36;9.38;;;5.63;;
19167;SDS011;9716;53.114;18.040;2022-09-29T02:27:04;7.32;;;4.95;;
19167;SDS011;9716;53.114;18.040;2022-09-29T02:29:34;8.02;;;5.43;;
19167;SDS011;9716;53.114;18.040;2022-09-29T02:32:03;9.55;;;6.10;;
19167;SDS011;9716;53.114;18.040;2022-09-29T02:34:37;10.35;;;5.25;;
19167;SDS011;9716;53.114;18.040;2022-09-29T02:37:13;8.57;;;5.78;;
19167;SDS011;9716;53.114;18.040;2022-09-29T02:39:53;12.43;;;6.65;;
19167;SDS011;9716;53.114;18.040;2022-09-29T02:42:31;10.68;;;5.00;;
19167;SDS011;9716;53.114;18.040;2022-09-29T02:45:10;12.60;;;7.20;;
19167;SDS011;9716;53.114;18.040;2022-09-29T02:47:51;9.77;;;5.80;;
19167;SDS011;9716;53.114;18.040;2022-09-29T02:50:40;12.60;;;6.70;;
19167;SDS011;9716;53.114;18.040;2022-09-29T02:53:18;9.40;;;6.28;;
19167;SDS011;9716;53.114;18.040;2022-09-29T02:55:56;12.82;;;6.88;;
19167;SDS011;9716;53.114;18.040;2022-09-29T02:58:31;13.02;;;6.90;;
19167;SDS011;9716;53.114;18.040;2022-09-29T03:01:05;10.13;;;5.95;;
19167;SDS011;9716;53.114;18.040;2022-09-29T03:03:34;13.20;;;7.80;;
19167;SDS011;9716;53.114;18.040;2022-09-29T03:06:04;11.45;;;7.18;;
19167;SDS011;9716;53.114;18.040;2022-09-29T03:08:33;11.45;;;6.85;;
19167;SDS011;9716;53.114;18.040;2022-09-29T03:11:01;13.52;;;7.53;;
19167;SDS011;9716;53.114;18.040;2022-09-29T03:13:30;13.50;;;6.90;;
19167;SDS011;9716;53.114;18.040;2022-09-29T03:15:59;13.85;;;6.82;;
19167;SDS011;9716;53.114;18.040;2022-09-29T03:18:28;13.07;;;7.60;;
19167;SDS011;9716;53.114;18.040;2022-09-29T03:20:56;13.38;;;6.85;;
19167;SDS011;9716;53.114;18.040;2022-09-29T03:23:26;11.50;;;7.28;;
19167;SDS011;9716;53.114;18.040;2022-09-29T03:25:54;12.45;;;7.93;;
19167;SDS011;9716;53.114;18.040;2022-09-29T03:28:23;19.73;;;7.95;;
19167;SDS011;9716;53.114;18.040;2022-09-29T03:30:51;16.98;;;7.82;;
19167;SDS011;9716;53.114;18.040;2022-09-29T03:33:21;13.50;;;7.72;;
19167;SDS011;9716;53.114;18.040;2022-09-29T03:35:49;17.48;;;7.80;;
19167;SDS011;9716;53.114;18.040;2022-09-29T03:38:18;14.40;;;7.70;;
19167;SDS011;9716;53.114;18.040;2022-09-29T03:40:48;12.25;;;7.55;;
19167;SDS011;9716;53.114;18.040;2022-09-29T03:43:16;15.90;;;7.63;;
19167;SDS011;9716;53.114;18.040;2022-09-29T03:45:48;15.38;;;7.95;;
19167;SDS011;9716;53.114;18.040;2022-09-29T03:48:17;14.77;;;7.65;;
19167;SDS011;9716;53.114;18.040;2022-09-29T03:50:50;12.00;;;6.72;;
19167;SDS011;9716;53.114;18.040;2022-09-29T03:53:19;18.60;;;8.25;;
19167;SDS011;9716;53.114;18.040;2022-09-29T03:55:49;12.55;;;7.57;;
19167;SDS011;9716;53.114;18.040;2022-09-29T03:58:18;13.57;;;6.97;;
19167;SDS011;9716;53.114;18.040;2022-09-29T04:00:46;12.02;;;7.60;;
19167;SDS011;9716;53.114;18.040;2022-09-29T04:03:15;16.73;;;8.63;;
19167;SDS011;9716;53.114;18.040;2022-09-29T04:05:44;15.88;;;8.68;;
19167;SDS011;9716;53.114;18.040;2022-09-29T04:08:13;15.50;;;8.90;;
19167;SDS011;9716;53.114;18.040;2022-09-29T04:10:44;17.35;;;9.07;;
19167;SDS011;9716;53.114;18.040;2022-09-29T04:13:15;15.18;;;7.65;;
19167;SDS011;9716;53.114;18.040;2022-09-29T04:15:45;17.33;;;8.10;;
19167;SDS011;9716;53.114;18.040;2022-09-29T04:18:14;17.17;;;8.48;;
19167;SDS011;9716;53.114;18.040;2022-09-29T04:20:43;17.80;;;9.10;;
19167;SDS011;9716;53.114;18.040;2022-09-29T04:23:11;16.42;;;8.07;;
19167;SDS011;9716;53.114;18.040;2022-09-29T04:25:40;17.67;;;7.82;;
19167;SDS011;9716;53.114;18.040;2022-09-29T04:28:11;15.07;;;8.88;;
19167;SDS011;9716;53.114;18.040;2022-09-29T04:30:41;13.85;;;8.13;;
19167;SDS011;9716;53.114;18.040;2022-09-29T04:33:09;21.80;;;9.23;;
19167;SDS011;9716;53.114;18.040;2022-09-29T04:35:38;16.33;;;7.68;;
19167;SDS011;9716;53.114;18.040;2022-09-29T04:38:07;15.05;;;8.85;;
19167;SDS011;9716;53.114;18.040;2022-09-29T04:40:35;16.42;;;9.07;;
19167;SDS011;9716;53.114;18.040;2022-09-29T04:43:04;16.27;;;9.30;;
19167;SDS011;9716;53.114;18.040;2022-09-29T04:45:33;14.52;;;7.75;;
19167;SDS011;9716;53.114;18.040;2022-09-29T04:48:02;23.02;;;8.73;;
19167;SDS011;9716;53.114;18.040;2022-09-29T04:50:31;20.33;;;7.85;;
19167;SDS011;9716;53.114;18.040;2022-09-29T04:53:00;13.00;;;7.15;;
19167;SDS011;9716;53.114;18.040;2022-09-29T04:55:29;11.82;;;7.40;;
19167;SDS011;9716;53.114;18.040;2022-09-29T04:57:57;12.15;;;8.15;;
19167;SDS011;9716;53.114;18.040;2022-09-29T05:00:26;15.50;;;8.23;;
19167;SDS011;9716;53.114;18.040;2022-09-29T05:02:54;12.43;;;7.13;;
19167;SDS011;9716;53.114;18.040;2022-09-29T05:05:25;15.25;;;7.53;;
19167;SDS011;9716;53.114;18.040;2022-09-29T05:07:54;14.98;;;8.23;;
19167;SDS011;9716;53.114;18.040;2022-09-29T05:10:25;15.43;;;7.55;;
19167;SDS011;9716;53.114;18.040;2022-09-29T05:12:53;15.35;;;7.05;;
19167;SDS011;9716;53.114;18.040;2022-09-29T05:15:22;14.20;;;8.30;;
19167;SDS011;9716;53.114;18.040;2022-09-29T05:17:52;13.70;;;7.70;;
19167;SDS011;9716;53.114;18.040;2022-09-29T05:20:20;15.30;;;8.18;;
19167;SDS011;9716;53.114;18.040;2022-09-29T05:22:50;13.77;;;7.60;;
19167;SDS011;9716;53.114;18.040;2022-09-29T05:25:19;12.93;;;7.28;;
19167;SDS011;9716;53.114;18.040;2022-09-29T05:27:47;18.48;;;7.57;;
19167;SDS011;9716;53.114;18.040;2022-09-29T05:30:15;12.93;;;7.35;;
19167;SDS011;9716;53.114;18.040;2022-09-29T05:32:44;11.10;;;7.18;;
19167;SDS011;9716;53.114;18.040;2022-09-29T05:35:13;12.00;;;7.25;;
19167;SDS011;9716;53.114;18.040;2022-09-29T05:37:41;14.35;;;7.93;;
19167;SDS011;9716;53.114;18.040;2022-09-29T05:40:11;13.85;;;7.70;;
19167;SDS011;9716;53.114;18.040;2022-09-29T05:42:40;15.40;;;8.05;;
19167;SDS011;9716;53.114;18.040;2022-09-29T05:45:08;13.50;;;7.65;;
19167;SDS011;9716;53.114;18.040;2022-09-29T05:47:39;15.85;;;7.88;;
19167;SDS011;9716;53.114;18.040;2022-09-29T05:50:09;16.65;;;8.90;;
19167;SDS011;9716;53.114;18.040;2022-09-29T05:52:38;18.77;;;9.20;;
19167;SDS011;9716;53.114;18.040;2022-09-29T05:55:07;24.60;;;8.23;;
19167;SDS011;9716;53.114;18.040;2022-09-29T05:57:38;16.30;;;7.72;;
19167;SDS011;9716;53.114;18.040;2022-09-29T06:00:07;16.52;;;8.52;;
19167;SDS011;9716;53.114;18.040;2022-09-29T06:02:36;14.45;;;8.35;;
19167;SDS011;9716;53.114;18.040;2022-09-29T06:05:04;15.82;;;8.00;;
19167;SDS011;9716;53.114;18.040;2022-09-29T06:07:33;18.50;;;9.43;;
19167;SDS011;9716;53.114;18.040;2022-09-29T06:10:02;18.58;;;7.88;;
19167;SDS011;9716;53.114;18.040;2022-09-29T06:12:33;17.23;;;8.60;;
19167;SDS011;9716;53.114;18.040;2022-09-29T06:15:04;19.80;;;9.93;;
19167;SDS011;9716;53.114;18.040;2022-09-29T06:17:33;14.65;;;9.02;;
19167;SDS011;9716;53.114;18.040;2022-09-29T06:20:02;18.00;;;7.90;;
19167;SDS011;9716;53.114;18.040;2022-09-29T06:22:31;17.83;;;8.75;;
19167;SDS011;9716;53.114;18.040;2022-09-29T06:25:00;13.13;;;7.82;;
19167;SDS011;9716;53.114;18.040;2022-09-29T06:27:28;17.25;;;9.18;;
19167;SDS011;9716;53.114;18.040;2022-09-29T06:29:57;17.95;;;9.32;;
19167;SDS011;9716;53.114;18.040;2022-09-29T06:32:27;20.48;;;9.13;;
19167;SDS011;9716;53.114;18.040;2022-09-29T06:34:56;19.67;;;9.38;;
19167;SDS011;9716;53.114;18.040;2022-09-29T06:37:42;20.00;;;9.15;;
19167;SDS011;9716;53.114;18.040;2022-09-29T06:40:12;16.65;;;9.73;;
19167;SDS011;9716;53.114;18.040;2022-09-29T06:42:41;19.08;;;9.15;;
19167;SDS011;9716;53.114;18.040;2022-09-29T06:45:09;14.07;;;9.13;;
19167;SDS011;9716;53.114;18.040;2022-09-29T06:47:39;17.90;;;9.63;;
19167;SDS011;9716;53.114;18.040;2022-09-29T06:50:08;14.98;;;8.18;;
19167;SDS011;9716;53.114;18.040;2022-09-29T06:52:47;17.85;;;9.80;;
19167;SDS011;9716;53.114;18.040;2022-09-29T06:55:29;15.98;;;9.27;;
19167;SDS011;9716;53.114;18.040;2022-09-29T06:57:58;17.80;;;8.88;;
19167;SDS011;9716;53.114;18.040;2022-09-29T07:00:31;18.77;;;9.52;;
19167;SDS011;9716;53.114;18.040;2022-09-29T07:03:02;14.48;;;8.80;;
19167;SDS011;9716;53.114;18.040;2022-09-29T07:05:30;18.20;;;9.75;;
19167;SDS011;9716;53.114;18.040;2022-09-29T07:07:59;19.02;;;10.43;;
19167;SDS011;9716;53.114;18.040;2022-09-29T07:10:29;17.38;;;10.25;;
19167;SDS011;9716;53.114;18.040;2022-09-29T07:12:57;19.83;;;9.00;;
19167;SDS011;9716;53.114;18.040;2022-09-29T07:15:25;18.42;;;9.18;;
19167;SDS011;9716;53.114;18.040;2022-09-29T07:17:57;19.95;;;10.25;;
19167;SDS011;9716;53.114;18.040;2022-09-29T07:20:28;20.52;;;10.70;;
19167;SDS011;9716;53.114;18.040;2022-09-29T07:22:57;30.13;;;9.80;;
19167;SDS011;9716;53.114;18.040;2022-09-29T07:25:26;14.70;;;8.77;;
19167;SDS011;9716;53.114;18.040;2022-09-29T07:28:15;13.35;;;8.40;;
19167;SDS011;9716;53.114;18.040;2022-09-29T07:30:43;14.73;;;8.27;;
19167;SDS011;9716;53.114;18.040;2022-09-29T07:33:12;17.75;;;9.20;;
19167;SDS011;9716;53.114;18.040;2022-09-29T07:35:42;17.27;;;8.77;;
19167;SDS011;9716;53.114;18.040;2022-09-29T07:38:10;15.25;;;8.57;;
19167;SDS011;9716;53.114;18.040;2022-09-29T07:40:39;12.38;;;7.95;;
19167;SDS011;9716;53.114;18.040;2022-09-29T07:43:07;14.30;;;8.02;;
19167;SDS011;9716;53.114;18.040;2022-09-29T07:45:36;15.07;;;7.20;;
19167;SDS011;9716;53.114;18.040;2022-09-29T07:48:05;10.32;;;6.18;;
19167;SDS011;9716;53.114;18.040;2022-09-29T07:50:33;12.75;;;7.90;;
19167;SDS011;9716;53.114;18.040;2022-09-29T07:53:03;15.63;;;8.23;;
19167;SDS011;9716;53.114;18.040;2022-09-29T07:55:32;10.45;;;6.72;;
19167;SDS011;9716;53.114;18.040;2022-09-29T07:58:00;10.70;;;6.35;;
19167;SDS011;9716;53.114;18.040;2022-09-29T08:00:29;14.95;;;7.95;;
19167;SDS011;9716;53.114;18.040;2022-09-29T08:02:58;11.93;;;7.07;;
19167;SDS011;9716;53.114;18.040;2022-09-29T08:05:29;13.27;;;6.65;;
19167;SDS011;9716;53.114;18.040;2022-09-29T08:08:00;13.30;;;8.00;;
19167;SDS011;9716;53.114;18.040;2022-09-29T08:10:31;16.13;;;8.18;;
19167;SDS011;9716;53.114;18.040;2022-09-29T08:13:12;14.90;;;7.38;;
19167;SDS011;9716;53.114;18.040;2022-09-29T08:15:41;11.38;;;7.40;;
19167;SDS011;9716;53.114;18.040;2022-09-29T08:18:09;12.05;;;7.55;;
19167;SDS011;9716;53.114;18.040;2022-09-29T08:20:38;14.40;;;7.43;;
19167;SDS011;9716;53.114;18.040;2022-09-29T08:23:06;12.70;;;8.18;;
19167;SDS011;9716;53.114;18.040;2022-09-29T08:25:36;14.25;;;7.82;;
19167;SDS011;9716;53.114;18.040;2022-09-29T08:28:05;12.23;;;7.38;;
19167;SDS011;9716;53.114;18.040;2022-09-29T08:30:39;15.85;;;7.22;;
19167;SDS011;9716;53.114;18.040;2022-09-29T08:33:08;11.07;;;7.00;;
19167;SDS011;9716;53.114;18.040;2022-09-29T08:35:40;13.18;;;6.95;;
19167;SDS011;9716;53.114;18.040;2022-09-29T08:38:09;13.65;;;7.75;;
19167;SDS011;9716;53.114;18.040;2022-09-29T08:40:38;14.82;;;7.35;;
19167;SDS011;9716;53.114;18.040;2022-09-29T08:43:09;13.38;;;7.50;;
19167;SDS011;9716;53.114;18.040;2022-09-29T08:45:57;13.80;;;7.45;;
19167;SDS011;9716;53.114;18.040;2022-09-29T08:48:30;11.80;;;7.15;;
19167;SDS011;9716;53.114;18.040;2022-09-29T08:51:02;13.52;;;6.90;;
19167;SDS011;9716;53.114;18.040;2022-09-29T08:53:34;14.77;;;8.10;;
19167;SDS011;9716;53.114;18.040;2022-09-29T08:56:25;18.02;;;7.15;;
19167;SDS011;9716;53.114;18.040;2022-09-29T08:58:54;13.63;;;8.18;;
19167;SDS011;9716;53.114;18.040;2022-09-29T09:01:27;13.48;;;7.55;;
19167;SDS011;9716;53.114;18.040;2022-09-29T09:04:11;16.65;;;7.72;;
19167;SDS011;9716;53.114;18.040;2022-09-29T09:06:59;21.63;;;9.13;;
19167;SDS011;9716;53.114;18.040;2022-09-29T09:09:40;17.02;;;9.68;;
19167;SDS011;9716;53.114;18.040;2022-09-29T09:12:26;15.32;;;9.02;;
19167;SDS011;9716;53.114;18.040;2022-09-29T09:15:13;12.90;;;7.75;;
19167;SDS011;9716;53.114;18.040;2022-09-29T09:17:56;9.98;;;6.43;;
19167;SDS011;9716;53.114;18.040;2022-09-29T09:20:39;13.65;;;7.30;;
19167;SDS011;9716;53.114;18.040;2022-09-29T09:23:14;12.20;;;7.65;;
19167;SDS011;9716;53.114;18.040;2022-09-29T09:25:48;13.05;;;7.55;;
19167;SDS011;9716;53.114;18.040;2022-09-29T09:28:24;9.40;;;6.15;;
19167;SDS011;9716;53.114;18.040;2022-09-29T09:30:58;11.52;;;6.97;;
19167;SDS011;9716;53.114;18.040;2022-09-29T09:33:33;15.30;;;8.30;;
19167;SDS011;9716;53.114;18.040;2022-09-29T09:36:07;14.88;;;7.90;;
19167;SDS011;9716;53.114;18.040;2022-09-29T09:38:58;11.50;;;6.15;;
19167;SDS011;9716;53.114;18.040;2022-09-29T09:41:32;11.98;;;8.00;;
19167;SDS011;9716;53.114;18.040;2022-09-29T09:44:05;9.70;;;7.20;;
19167;SDS011;9716;53.114;18.040;2022-09-29T09:46:42;7.00;;;4.93;;
19167;SDS011;9716;53.114;18.040;2022-09-29T09:49:16;11.75;;;6.00;;
19167;SDS011;9716;53.114;18.040;2022-09-29T09:51:52;9.43;;;5.07;;
19167;SDS011;9716;53.114;18.040;2022-09-29T09:54:26;22.05;;;6.18;;
19167;SDS011;9716;53.114;18.040;2022-09-29T09:57:05;9.05;;;5.70;;
19167;SDS011;9716;53.114;18.040;2022-09-29T09:59:57;11.35;;;5.95;;
19167;SDS011;9716;53.114;18.040;2022-09-29T10:02:32;14.85;;;6.15;;
19167;SDS011;9716;53.114;18.040;2022-09-29T10:05:01;11.38;;;6.65;;
19167;SDS011;9716;53.114;18.040;2022-09-29T10:07:35;12.75;;;7.22;;
19167;SDS011;9716;53.114;18.040;2022-09-29T10:10:04;15.65;;;7.20;;
19167;SDS011;9716;53.114;18.040;2022-09-29T10:12:42;10.20;;;5.60;;
19167;SDS011;9716;53.114;18.040;2022-09-29T10:15:16;11.25;;;5.72;;
19167;SDS011;9716;53.114;18.040;2022-09-29T10:17:49;13.70;;;7.30;;
19167;SDS011;9716;53.114;18.040;2022-09-29T10:20:30;11.05;;;6.00;;
19167;SDS011;9716;53.114;18.040;2022-09-29T10:23:23;8.70;;;5.53;;
19167;SDS011;9716;53.114;18.040;2022-09-29T10:25:54;12.05;;;6.40;;
19167;SDS011;9716;53.114;18.040;2022-09-29T10:28:27;8.77;;;5.55;;
19167;SDS011;9716;53.114;18.040;2022-09-29T10:31:15;9.82;;;5.55;;
19167;SDS011;9716;53.114;18.040;2022-09-29T10:33:50;10.32;;;6.03;;
19167;SDS011;9716;53.114;18.040;2022-09-29T10:36:22;6.68;;;4.45;;
19167;SDS011;9716;53.114;18.040;2022-09-29T10:38:52;8.63;;;5.05;;
19167;SDS011;9716;53.114;18.040;2022-09-29T10:41:28;7.35;;;5.35;;
19167;SDS011;9716;53.114;18.040;2022-09-29T10:44:19;6.03;;;4.13;;
19167;SDS011;9716;53.114;18.040;2022-09-29T10:46:51;7.95;;;4.72;;
19167;SDS011;9716;53.114;18.040;2022-09-29T10:49:22;11.82;;;5.18;;
19167;SDS011;9716;53.114;18.040;2022-09-29T10:51:55;5.35;;;3.75;;
19167;SDS011;9716;53.114;18.040;2022-09-29T10:54:28;10.05;;;5.60;;
19167;SDS011;9716;53.114;18.040;2022-09-29T10:57:09;8.73;;;4.63;;
19167;SDS011;9716;53.114;18.040;2022-09-29T10:59:44;6.20;;;4.03;;
19167;SDS011;9716;53.114;18.040;2022-09-29T11:02:18;7.30;;;3.90;;
19167;SDS011;9716;53.114;18.040;2022-09-29T11:04:51;7.18;;;4.25;;
19167;SDS011;9716;53.114;18.040;2022-09-29T11:07:22;5.18;;;3.72;;
19167;SDS011;9716;53.114;18.040;2022-09-29T11:09:51;9.18;;;3.85;;
19167;SDS011;9716;53.114;18.040;2022-09-29T11:12:25;6.55;;;3.30;;
19167;SDS011;9716;53.114;18.040;2022-09-29T11:14:57;5.00;;;3.53;;
19167;SDS011;9716;53.114;18.040;2022-09-29T11:17:29;5.10;;;3.50;;
19167;SDS011;9716;53.114;18.040;2022-09-29T11:19:59;4.30;;;3.28;;
19167;SDS011;9716;53.114;18.040;2022-09-29T11:22:37;3.90;;;3.13;;
19167;SDS011;9716;53.114;18.040;2022-09-29T11:25:27;4.65;;;3.22;;
19167;SDS011;9716;53.114;18.040;2022-09-29T11:28:14;5.93;;;3.47;;
19167;SDS011;9716;53.114;18.040;2022-09-29T11:31:05;9.25;;;3.15;;
19167;SDS011;9716;53.114;18.040;2022-09-29T11:33:48;7.20;;;3.55;;
19167;SDS011;9716;53.114;18.040;2022-09-29T11:36:29;3.67;;;2.80;;
19167;SDS011;9716;53.114;18.040;2022-09-29T11:39:09;5.43;;;3.22;;
19167;SDS011;9716;53.114;18.040;2022-09-29T11:41:55;4.05;;;3.22;;
19167;SDS011;9716;53.114;18.040;2022-09-29T11:44:51;3.95;;;3.08;;
19167;SDS011;9716;53.114;18.040;2022-09-29T11:47:28;5.43;;;2.80;;
19167;SDS011;9716;53.114;18.040;2022-09-29T11:50:15;7.90;;;3.53;;
19167;SDS011;9716;53.114;18.040;2022-09-29T11:53:02;5.53;;;3.10;;
19167;SDS011;9716;53.114;18.040;2022-09-29T11:55:51;4.15;;;2.97;;
19167;SDS011;9716;53.114;18.040;2022-09-29T11:58:31;5.25;;;3.10;;
19167;SDS011;9716;53.114;18.040;2022-09-29T12:01:28;3.33;;;2.83;;
19167;SDS011;9716;53.114;18.040;2022-09-29T12:04:12;4.28;;;3.15;;
19167;SDS011;9716;53.114;18.040;2022-09-29T12:06:53;3.90;;;2.72;;
19167;SDS011;9716;53.114;18.040;2022-09-29T12:09:28;5.47;;;3.20;;
19167;SDS011;9716;53.114;18.040;2022-09-29T12:12:15;5.68;;;3.63;;
19167;SDS011;9716;53.114;18.040;2022-09-29T12:15:00;5.15;;;3.60;;
19167;SDS011;9716;53.114;18.040;2022-09-29T12:17:40;6.00;;;3.55;;
19167;SDS011;9716;53.114;18.040;2022-09-29T12:20:13;6.40;;;3.35;;
19167;SDS011;9716;53.114;18.040;2022-09-29T12:22:47;4.60;;;3.00;;
19167;SDS011;9716;53.114;18.040;2022-09-29T12:25:19;5.30;;;3.30;;
19167;SDS011;9716;53.114;18.040;2022-09-29T12:27:52;6.07;;;3.00;;
19167;SDS011;9716;53.114;18.040;2022-09-29T12:30:26;3.60;;;2.85;;
19167;SDS011;9716;53.114;18.040;2022-09-29T12:32:57;5.95;;;2.95;;
19167;SDS011;9716;53.114;18.040;2022-09-29T12:35:33;6.38;;;3.17;;
19167;SDS011;9716;53.114;18.040;2022-09-29T12:38:09;4.05;;;2.58;;
19167;SDS011;9716;53.114;18.040;2022-09-29T12:40:46;8.18;;;2.50;;
19167;SDS011;9716;53.114;18.040;2022-09-29T12:43:26;6.95;;;2.58;;
19167;SDS011;9716;53.114;18.040;2022-09-29T12:45:59;7.05;;;2.80;;
19167;SDS011;9716;53.114;18.040;2022-09-29T12:48:37;4.00;;;2.72;;
19167;SDS011;9716;53.114;18.040;2022-09-29T12:51:16;4.63;;;2.70;;
19167;SDS011;9716;53.114;18.040;2022-09-29T12:53:58;4.25;;;2.90;;
19167;SDS011;9716;53.114;18.040;2022-09-29T12:56:39;3.83;;;2.50;;
19167;SDS011;9716;53.114;18.040;2022-09-29T12:59:13;4.38;;;2.85;;
19167;SDS011;9716;53.114;18.040;2022-09-29T13:01:50;4.68;;;2.70;;
19167;SDS011;9716;53.114;18.040;2022-09-29T13:04:32;6.45;;;2.47;;
19167;SDS011;9716;53.114;18.040;2022-09-29T13:07:29;4.55;;;3.00;;
19167;SDS011;9716;53.114;18.040;2022-09-29T13:10:25;3.63;;;2.92;;
19167;SDS011;9716;53.114;18.040;2022-09-29T13:13:10;4.50;;;2.75;;
19167;SDS011;9716;53.114;18.040;2022-09-29T13:15:55;5.40;;;2.80;;
19167;SDS011;9716;53.114;18.040;2022-09-29T13:18:42;4.72;;;3.20;;
19167;SDS011;9716;53.114;18.040;2022-09-29T13:21:34;4.75;;;3.22;;
19167;SDS011;9716;53.114;18.040;2022-09-29T13:24:20;5.53;;;3.20;;
19167;SDS011;9716;53.114;18.040;2022-09-29T13:29:57;5.72;;;3.42;;
19167;SDS011;9716;53.114;18.040;2022-09-29T13:32:32;4.20;;;3.08;;
19167;SDS011;9716;53.114;18.040;2022-09-29T13:35:10;6.47;;;3.33;;
19167;SDS011;9716;53.114;18.040;2022-09-29T13:37:46;3.60;;;2.90;;
19167;SDS011;9716;53.114;18.040;2022-09-29T13:40:18;5.25;;;3.17;;
19167;SDS011;9716;53.114;18.040;2022-09-29T13:42:52;4.28;;;2.90;;
19167;SDS011;9716;53.114;18.040;2022-09-29T13:51:27;4.50;;;3.10;;
19167;SDS011;9716;53.114;18.040;2022-09-29T13:57:05;5.25;;;3.13;;
19167;SDS011;9716;53.114;18.040;2022-09-29T14:00:04;4.22;;;2.50;;
19167;SDS011;9716;53.114;18.040;2022-09-29T14:03:03;3.30;;;2.20;;
19167;SDS011;9716;53.114;18.040;2022-09-29T14:05:36;4.20;;;2.97;;
19167;SDS011;9716;53.114;18.040;2022-09-29T14:08:58;3.95;;;2.58;;
19167;SDS011;9716;53.114;18.040;2022-09-29T14:11:32;5.95;;;2.38;;
19167;SDS011;9716;53.114;18.040;2022-09-29T14:14:04;4.00;;;2.42;;
19167;SDS011;9716;53.114;18.040;2022-09-29T14:16:41;3.50;;;2.60;;
19167;SDS011;9716;53.114;18.040;2022-09-29T14:19:24;3.50;;;2.50;;
19167;SDS011;9716;53.114;18.040;2022-09-29T14:28:22;2.40;;;2.17;;
19167;SDS011;9716;53.114;18.040;2022-09-29T14:30:59;4.88;;;2.78;;
19167;SDS011;9716;53.114;18.040;2022-09-29T14:33:35;3.28;;;2.28;;
19167;SDS011;9716;53.114;18.040;2022-09-29T14:36:09;2.45;;;2.10;;
19167;SDS011;9716;53.114;18.040;2022-09-29T14:38:43;3.08;;;2.20;;
19167;SDS011;9716;53.114;18.040;2022-09-29T14:41:38;2.15;;;1.85;;
19167;SDS011;9716;53.114;18.040;2022-09-29T14:44:09;4.97;;;2.00;;
19167;SDS011;9716;53.114;18.040;2022-09-29T14:53:26;3.45;;;2.58;;
19167;SDS011;9716;53.114;18.040;2022-09-29T14:56:17;4.55;;;1.85;;
19167;SDS011;9716;53.114;18.040;2022-09-29T14:59:03;2.90;;;2.28;;
19167;SDS011;9716;53.114;18.040;2022-09-29T15:01:55;4.13;;;2.50;;
19167;SDS011;9716;53.114;18.040;2022-09-29T15:04:35;3.80;;;2.17;;
19167;SDS011;9716;53.114;18.040;2022-09-29T15:07:08;4.40;;;2.75;;
19167;SDS011;9716;53.114;18.040;2022-09-29T15:09:42;2.83;;;2.42;;
19167;SDS011;9716;53.114;18.040;2022-09-29T15:12:14;2.80;;;2.22;;
19167;SDS011;9716;53.114;18.040;2022-09-29T15:14:43;2.88;;;2.45;;
19167;SDS011;9716;53.114;18.040;2022-09-29T15:17:14;3.95;;;2.20;;
19167;SDS011;9716;53.114;18.040;2022-09-29T15:19:51;4.55;;;2.60;;
19167;SDS011;9716;53.114;18.040;2022-09-29T15:25:28;2.67;;;2.25;;
19167;SDS011;9716;53.114;18.040;2022-09-29T15:27:58;3.03;;;2.20;;
19167;SDS011;9716;53.114;18.040;2022-09-29T15:30:30;2.88;;;2.20;;
19167;SDS011;9716;53.114;18.040;2022-09-29T15:33:08;3.28;;;2.38;;
19167;SDS011;9716;53.114;18.040;2022-09-29T15:35:49;4.05;;;2.67;;
19167;SDS011;9716;53.114;18.040;2022-09-29T15:38:30;3.13;;;2.10;;
19167;SDS011;9716;53.114;18.040;2022-09-29T15:41:03;5.28;;;2.30;;
19167;SDS011;9716;53.114;18.040;2022-09-29T15:43:41;3.50;;;2.30;;
19167;SDS011;9716;53.114;18.040;2022-09-29T15:46:14;3.03;;;2.28;;
19167;SDS011;9716;53.114;18.040;2022-09-29T15:49:10;5.03;;;1.95;;
19167;SDS011;9716;53.114;18.040;2022-09-29T15:51:42;2.80;;;2.08;;